Time;durP1;ratioP1;P1;durP2;ratioP2;P2;SDS_P1;SDS_P2;PMS_P1;PMS_P2;Temp;Humidity;BMP_temperature;BMP_pressure;BME280_temperature;BME280_humidity;BME280_pressure;Samples;Min_cycle;Max_cycle;Signal;HPM_P1;HPM_P2
2022/06/14 00:01:28;;;;;;;11.40;3.20;;;9.90;99.90;9.10;100272;;;;572980;246;24101;-80
2022/06/14 00:03:54;;;;;;;3.43;2.20;;;9.80;99.90;9.10;100268;;;;550336;256;24197;-80
2022/06/14 00:06:22;;;;;;;8.50;2.33;;;9.80;99.90;9.10;100270;;;;582794;244;24089;-80
2022/06/14 00:08:50;;;;;;;5.73;2.30;;;9.80;99.90;9.10;100270;;;;573293;246;24147;-76
2022/06/14 00:11:21;;;;;;;3.30;2.00;;;9.80;99.90;9.10;100273;;;;573059;246;24132;-80
2022/06/14 00:13:49;;;;;;;4.10;2.10;;;9.80;99.90;9.10;100265;;;;572870;246;24083;-79
2022/06/14 00:16:17;;;;;;;2.87;2.20;;;9.80;99.90;9.10;100263;;;;573116;246;24054;-74
2022/06/14 00:18:45;;;;;;;5.40;2.57;;;9.80;99.90;9.10;100267;;;;573046;246;24086;-79
2022/06/14 00:21:13;;;;;;;4.63;2.20;;;9.80;99.90;9.10;100268;;;;573079;246;24102;-81
2022/06/14 00:23:41;;;;;;;5.73;2.30;;;9.80;99.90;9.10;100268;;;;573115;246;24071;-80
2022/06/14 00:26:12;;;;;;;6.73;2.27;;;9.80;99.90;9.10;100264;;;;573177;246;24131;-79
2022/06/14 00:28:37;;;;;;;5.03;1.80;;;9.80;99.90;9.10;100266;;;;572554;246;24147;-78
2022/06/14 00:31:05;;;;;;;3.17;1.93;;;9.80;99.90;9.10;100259;;;;572681;246;24103;-79
2022/06/14 00:33:33;;;;;;;9.60;2.40;;;9.80;99.90;9.00;100268;;;;581056;245;24161;-80
2022/06/14 00:36:01;;;;;;;10.80;2.10;;;9.80;99.90;9.10;100264;;;;572571;246;24071;-79
2022/06/14 00:38:28;;;;;;;2.80;2.07;;;9.80;99.90;9.00;100272;;;;568284;246;24087;-76
2022/06/14 00:40:56;;;;;;;3.80;2.00;;;9.80;99.90;9.00;100270;;;;581485;246;24168;-79
2022/06/14 00:43:25;;;;;;;5.70;2.03;;;9.80;99.90;9.00;100269;;;;572651;246;24111;-78
2022/06/14 00:45:53;;;;;;;4.20;2.80;;;9.70;99.90;9.00;100272;;;;574068;246;24102;-78
2022/06/14 00:48:27;;;;;;;2.83;1.80;;;9.70;99.90;9.00;100271;;;;578899;246;24145;-80
2022/06/14 00:51:00;;;;;;;3.17;1.73;;;9.70;99.90;9.00;100271;;;;573551;246;24063;-74
2022/06/14 00:53:43;;;;;;;5.30;2.50;;;9.70;99.90;9.00;100273;;;;573338;246;24102;-73
2022/06/14 00:56:17;;;;;;;5.43;2.50;;;9.70;99.90;9.00;100274;;;;571232;245;24093;-76
2022/06/14 00:58:45;;;;;;;8.23;2.47;;;9.70;99.90;8.90;100261;;;;573185;246;24107;-74
2022/06/14 01:01:22;;;;;;;5.07;2.80;;;9.70;99.90;8.90;100271;;;;568074;246;35127;-76
2022/06/14 01:03:59;;;;;;;6.40;3.25;;;9.60;99.90;8.90;100267;;;;567981;246;35194;-79
2022/06/14 01:07:03;;;;;;;3.70;2.63;;;9.70;99.90;8.90;100261;;;;573030;246;24105;-79
2022/06/14 01:09:31;;;;;;;4.07;1.87;;;9.60;99.90;8.90;100257;;;;573062;246;24085;-77
2022/06/14 01:12:08;;;;;;;2.63;1.60;;;9.60;99.90;8.90;100253;;;;572410;246;24086;-80
2022/06/14 01:15:05;;;;;;;4.87;2.50;;;9.60;99.90;8.90;100257;;;;572956;246;24096;-80
2022/06/14 01:17:33;;;;;;;3.17;2.13;;;9.60;99.90;8.80;100249;;;;573354;246;24121;-74
2022/06/14 01:20:02;;;;;;;8.03;2.30;;;9.60;99.90;8.80;100250;;;;572429;246;24112;-77
2022/06/14 01:22:30;;;;;;;6.87;2.62;;;9.50;99.90;8.80;100254;;;;564124;246;35210;-78
2022/06/14 01:25:00;;;;;;;4.57;2.07;;;9.60;99.90;8.80;100246;;;;572694;246;24068;-74
2022/06/14 01:27:25;;;;;;;5.23;2.07;;;9.50;99.90;8.80;100243;;;;570730;245;24093;-74
2022/06/14 01:30:02;;;;;;;5.50;2.07;;;9.50;99.90;8.80;100247;;;;573065;246;24063;-74
2022/06/14 01:32:30;;;;;;;7.28;3.10;;;9.50;99.90;8.80;100251;;;;565333;246;45564;-76
2022/06/14 01:34:58;;;;;;;8.27;2.83;;;9.50;99.90;8.70;100253;;;;573428;246;24160;-79
2022/06/14 01:37:25;;;;;;;7.87;2.47;;;9.50;99.90;8.70;100256;;;;573534;246;24126;-80
2022/06/14 01:39:53;;;;;;;3.17;2.23;;;9.40;99.90;8.70;100264;;;;573624;246;24075;-78
2022/06/14 01:42:24;;;;;;;3.07;1.97;;;9.40;99.90;8.70;100251;;;;573357;245;24074;-77
2022/06/14 01:45:01;;;;;;;3.50;2.00;;;9.40;99.90;8.70;100254;;;;581221;240;24084;-76
2022/06/14 01:47:41;;;;;;;6.22;3.10;;;9.40;99.90;8.70;100264;;;;568105;245;35132;-77
2022/06/14 01:53:46;;;;;;;4.07;1.83;;;9.40;99.90;8.60;100258;;;;573864;246;24100;-77
2022/06/14 01:56:17;;;;;;;4.23;1.93;;;9.40;99.90;8.60;100259;;;;573831;246;24061;-80
2022/06/14 01:59:12;;;;;;;5.83;2.00;;;9.30;99.90;8.60;100252;;;;573812;246;24067;-78
2022/06/14 02:02:07;;;;;;;2.50;2.00;;;9.30;99.90;8.50;100252;;;;573717;246;24482;-79
2022/06/14 02:04:50;;;;;;;6.23;2.40;;;9.30;99.90;8.50;100252;;;;572427;246;24075;-78
2022/06/14 02:07:38;;;;;;;4.27;2.10;;;9.30;99.90;8.60;100252;;;;566757;245;24118;-79
2022/06/14 02:10:11;;;;;;;2.77;2.00;;;9.30;99.90;8.60;100246;;;;572587;246;24077;-78
2022/06/14 02:12:46;;;;;;;3.20;1.83;;;9.30;99.90;8.60;100250;;;;574055;246;24063;-76
2022/06/14 02:15:29;;;;;;;4.53;1.93;;;9.30;99.90;8.70;100253;;;;573593;245;24097;-79
2022/06/14 02:18:14;;;;;;;4.43;2.10;;;9.40;99.90;8.70;100257;;;;582898;246;24079;-80
2022/06/14 02:20:45;;;;;;;3.27;2.00;;;9.40;99.90;8.70;100252;;;;582208;246;24073;-79
2022/06/14 02:23:13;;;;;;;2.27;2.07;;;9.50;99.90;8.80;100256;;;;581572;246;24142;-79
2022/06/14 02:25:50;;;;;;;4.50;2.53;;;9.60;99.90;8.90;100258;;;;573452;246;24123;-78
2022/06/14 02:28:25;;;;;;;11.47;2.30;;;9.60;99.90;8.90;100252;;;;573145;246;24102;-78
2022/06/14 02:30:55;;;;;;;5.80;1.97;;;9.70;99.90;9.10;100261;;;;572548;245;24098;-79
2022/06/14 02:33:26;;;;;;;6.17;2.30;;;9.80;99.90;9.20;100263;;;;572724;246;24098;-78
2022/06/14 02:35:57;;;;;;;4.90;2.10;;;9.90;99.90;9.30;100251;;;;572923;245;24121;-79
2022/06/14 02:38:30;;;;;;;6.30;1.90;;;10.00;99.90;9.40;100253;;;;572499;246;24099;-79
2022/06/14 02:41:03;;;;;;;2.77;2.20;;;10.00;99.90;9.40;100264;;;;568877;246;24144;-79
2022/06/14 02:43:40;;;;;;;2.33;2.07;;;10.10;99.90;9.40;100263;;;;572537;246;24107;-78
2022/06/14 02:46:08;;;;;;;5.60;2.30;;;10.10;99.90;9.50;100268;;;;569042;246;24101;-80
2022/06/14 02:48:51;;;;;;;5.67;2.13;;;10.20;99.90;9.50;100259;;;;572349;246;24131;-81
2022/06/14 02:51:28;;;;;;;3.50;2.13;;;10.20;99.90;9.60;100257;;;;560992;246;24090;-80
2022/06/14 02:54:01;;;;;;;3.40;2.07;;;10.30;99.90;9.60;100262;;;;568524;246;24060;-77
2022/06/14 02:56:32;;;;;;;6.17;2.60;;;10.30;99.90;9.70;100257;;;;572875;245;24101;-79
2022/06/14 02:59:08;;;;;;;5.07;1.90;;;10.40;99.90;9.80;100261;;;;567629;246;24094;-79
2022/06/14 03:01:55;;;;;;;6.57;2.33;;;10.50;99.90;9.80;100265;;;;569797;246;24155;-80
2022/06/14 03:04:41;;;;;;;5.80;1.93;;;10.50;99.90;9.90;100266;;;;568913;246;24117;-79
2022/06/14 03:07:20;;;;;;;5.80;1.90;;;10.60;99.90;10.00;100270;;;;573044;244;24108;-78
2022/06/14 03:09:48;;;;;;;5.40;1.80;;;10.70;99.90;10.10;100271;;;;574218;244;24161;-79
2022/06/14 03:12:25;;;;;;;7.57;2.73;;;10.80;99.90;10.40;100278;;;;574075;246;24106;-78
2022/06/14 03:15:31;;;;;;;5.37;3.33;;;11.00;99.90;10.60;100270;;;;568147;245;46131;-76
2022/06/14 03:18:06;;;;;;;5.93;2.80;;;11.20;99.90;10.80;100275;;;;569324;246;24067;-75
2022/06/14 03:20:45;;;;;;;2.77;2.40;;;11.50;99.90;11.50;100272;;;;573030;245;24145;-75
2022/06/14 03:23:25;;;;;;;12.27;2.47;;;12.00;99.90;12.40;100282;;;;568591;246;24091;-81
2022/06/14 03:26:13;;;;;;;4.20;1.43;;;12.90;99.90;13.30;100284;;;;563796;246;24099;-81
2022/06/14 03:28:58;;;;;;;9.33;2.27;;;14.80;99.90;14.20;100288;;;;570385;246;24106;-81
2022/06/14 03:31:38;;;;;;;1.80;1.53;;;14.70;99.90;15.10;100285;;;;572990;246;24117;-80
2022/06/14 03:34:18;;;;;;;4.47;1.63;;;15.70;99.90;15.90;100291;;;;573157;246;24059;-80
2022/06/14 03:36:46;;;;;;;2.17;1.33;;;16.50;99.90;16.60;100283;;;;581912;246;24079;-79
2022/06/14 03:39:14;;;;;;;2.70;1.60;;;17.20;99.90;17.10;100277;;;;573433;246;24076;-74
2022/06/14 03:41:43;;;;;;;4.57;1.10;;;17.80;99.90;17.60;100287;;;;572777;246;24120;-75
2022/06/14 03:44:13;;;;;;;4.83;1.53;;;18.40;99.90;18.10;100288;;;;573211;246;24131;-75
2022/06/14 03:46:50;;;;;;;5.23;1.20;;;18.90;99.90;17.80;100287;;;;572823;246;24173;-76
2022/06/14 03:49:20;;;;;;;5.60;1.37;;;18.80;99.90;17.10;100283;;;;581653;246;24097;-77
2022/06/14 03:51:57;;;;;;;5.40;1.73;;;18.20;99.90;16.30;100284;;;;572947;245;24129;-79
2022/06/14 03:54:49;;;;;;;2.73;1.00;;;17.50;99.90;15.60;100290;;;;572902;246;24069;-78
2022/06/14 03:57:38;;;;;;;4.53;1.47;;;16.70;99.90;15.70;100287;;;;570154;246;24053;-73
2022/06/14 04:00:34;;;;;;;2.27;1.10;;;17.10;99.90;16.50;100285;;;;553849;246;24086;-80
2022/06/14 04:03:34;;;;;;;7.17;1.87;;;17.10;99.90;16.40;100291;;;;550855;257;24130;-80
2022/06/14 04:06:23;;;;;;;1.80;1.20;;;17.20;99.90;15.90;100285;;;;553738;257;24171;-80
2022/06/14 04:09:16;;;;;;;2.57;1.33;;;16.80;99.90;15.50;100280;;;;573272;246;24053;-79
2022/06/14 04:12:02;;;;;;;4.37;1.20;;;16.30;99.90;15.10;100279;;;;581524;246;24111;-76
2022/06/14 04:15:07;;;;;;;4.13;1.53;;;15.90;99.90;14.60;100281;;;;581002;246;24066;-80
2022/06/14 04:17:41;;;;;;;5.77;1.70;;;15.00;99.90;14.20;100274;;;;568330;246;24076;-76
2022/06/14 04:20:25;;;;;;;2.63;1.20;;;14.70;99.90;14.00;100280;;;;569610;246;24083;-79
2022/06/14 04:23:20;;;;;;;5.20;2.30;;;14.70;99.90;13.90;100276;;;;573728;244;24106;-80
2022/06/14 04:25:54;;;;;;;3.90;1.27;;;14.50;99.90;13.80;100285;;;;567482;246;24102;-75
2022/06/14 04:28:22;;;;;;;2.43;1.20;;;14.40;99.90;13.80;100274;;;;572358;246;24067;-75
2022/06/14 04:30:56;;;;;;;3.50;1.17;;;14.90;99.90;14.40;100288;;;;573284;246;24194;-79
2022/06/14 04:33:27;;;;;;;6.03;1.37;;;14.80;99.90;15.00;100275;;;;573346;246;24056;-79
2022/06/14 04:35:55;;;;;;;9.17;1.90;;;15.50;99.90;15.50;100277;;;;572918;246;24117;-80
2022/06/14 04:38:26;;;;;;;7.07;1.80;;;15.90;99.90;17.40;100276;;;;567566;246;37457;-79
2022/06/14 04:41:06;;;;;;;3.80;1.33;;;17.60;99.90;19.50;100287;;;;568018;246;35230;-76
2022/06/14 04:43:55;;;;;;;4.03;1.40;;;19.70;99.90;21.40;100287;;;;573319;246;24055;-77
2022/06/14 04:46:34;;;;;;;4.13;1.63;;;21.90;99.90;23.00;100296;;;;572698;246;24115;-76
2022/06/14 04:49:04;;;;;;;5.30;1.50;;;23.70;99.90;24.30;100290;;;;573035;245;24126;-76
2022/06/14 04:51:42;;;;;;;3.73;1.63;;;25.00;96.70;25.10;100299;;;;573334;246;24050;-78
2022/06/14 04:54:25;;;;;;;5.20;1.30;;;26.10;91.20;25.70;100295;;;;569468;246;24066;-78
2022/06/14 04:56:59;;;;;;;3.67;1.80;;;26.80;86.20;26.70;100297;;;;572968;246;23084;-76
2022/06/14 04:59:54;;;;;;;6.67;1.87;;;27.80;80.40;27.70;100301;;;;570759;246;23075;-80
2022/06/14 05:02:28;;;;;;;5.57;1.90;;;30.00;67.30;29.00;100311;;;;573213;246;23153;-76
2022/06/14 05:04:59;;;;;;;2.53;1.30;;;29.90;67.20;28.80;100300;;;;581759;246;23063;-76
2022/06/14 05:07:30;;;;;;;4.12;1.35;;;30.20;64.20;29.50;100316;;;;573047;246;23112;-75
2022/06/14 05:10:06;;;;;;;2.78;1.60;;;30.70;62.20;29.70;100303;;;;571039;246;23093;-77
2022/06/14 05:12:43;;;;;;;5.93;1.87;;;30.90;59.00;29.30;100314;;;;573172;246;23137;-79
2022/06/14 05:15:11;;;;;;;3.28;1.67;;;30.60;58.40;29.50;100312;;;;581580;246;23062;-76
2022/06/14 05:17:45;;;;;;;4.62;1.50;;;30.70;57.90;30.20;100316;;;;572895;246;23088;-77
2022/06/14 05:20:33;;;;;;;3.80;1.80;;;31.20;56.70;30.80;100318;;;;568383;246;24086;-75
2022/06/14 05:23:05;;;;;;;7.28;2.47;;;32.30;53.90;31.20;100337;;;;568746;246;24139;-76
2022/06/14 05:25:46;;;;;;;8.32;1.90;;;32.40;53.40;31.40;100325;;;;572127;246;23178;-75
2022/06/14 05:28:11;;;;;;;7.22;2.08;;;32.40;53.40;31.50;100330;;;;569610;246;23082;-77
2022/06/14 05:31:00;;;;;;;4.30;1.60;;;32.60;53.00;30.60;100342;;;;573425;244;23109;-76
2022/06/14 05:33:39;;;;;;;5.93;2.12;;;31.80;53.20;28.60;100341;;;;573793;246;23077;-75
2022/06/14 05:36:19;;;;;;;4.65;1.52;;;30.10;54.80;27.10;100347;;;;573007;246;23115;-75
2022/06/14 05:39:02;;;;;;;4.07;1.58;;;28.50;57.10;25.90;100341;;;;573620;246;23101;-75
2022/06/14 05:41:36;;;;;;;2.97;1.27;;;27.20;59.30;24.80;100344;;;;572223;245;23105;-76
2022/06/14 05:44:09;;;;;;;6.20;2.00;;;25.90;62.00;24.10;100347;;;;572927;246;24116;-75
2022/06/14 05:46:41;;;;;;;3.83;1.63;;;25.00;64.70;23.70;100343;;;;568898;246;23070;-76
2022/06/14 05:49:18;;;;;;;3.97;2.27;;;25.00;66.40;24.90;100353;;;;573120;246;24081;-76
2022/06/14 05:51:57;;;;;;;4.00;1.83;;;25.00;66.30;25.30;100355;;;;567721;246;23093;-74
2022/06/14 05:54:36;;;;;;;4.20;1.70;;;25.70;63.70;24.80;100356;;;;568927;246;23101;-75
2022/06/14 05:57:07;;;;;;;5.73;1.80;;;25.40;64.10;25.70;100358;;;;563322;246;23120;-75
2022/06/14 05:59:41;;;;;;;4.53;2.00;;;26.10;64.40;26.30;100353;;;;568879;246;23086;-78
2022/06/14 06:02:09;;;;;;;4.83;1.80;;;26.70;62.90;27.40;100360;;;;572983;246;23120;-79
2022/06/14 06:04:46;;;;;;;3.70;1.70;;;27.70;60.80;27.70;100370;;;;573040;246;24059;-74
2022/06/14 06:07:13;;;;;;;6.23;2.00;;;28.10;59.20;27.20;100366;;;;581691;243;24095;-76
2022/06/14 06:09:41;;;;;;;8.27;2.10;;;27.80;58.40;27.80;100365;;;;568610;246;23066;-78
2022/06/14 06:12:19;;;;;;;3.73;1.57;;;28.70;57.60;28.20;100365;;;;571975;245;23077;-75
2022/06/14 06:14:50;;;;;;;6.17;1.90;;;28.70;57.20;28.20;100367;;;;568315;246;23098;-76
2022/06/14 06:17:48;;;;;;;2.40;1.77;;;28.70;57.20;28.90;100371;;;;581275;246;24098;-76
2022/06/14 06:20:29;;;;;;;5.53;1.50;;;29.20;56.10;28.60;100371;;;;570444;246;23117;-78
2022/06/14 06:23:10;;;;;;;5.43;1.73;;;28.50;56.40;27.50;100364;;;;572591;246;24119;-76
2022/06/14 06:25:37;;;;;;;5.20;2.03;;;28.50;56.40;26.20;100373;;;;573133;246;23117;-77
2022/06/14 06:28:14;;;;;;;2.90;1.37;;;27.30;57.00;24.90;100370;;;;572112;246;24081;-73
2022/06/14 06:31:06;;;;;;;3.13;1.47;;;26.20;59.20;23.50;100374;;;;572924;246;24098;-75
2022/06/14 06:33:34;;;;;;;3.90;1.60;;;24.80;62.20;22.60;100375;;;;572700;246;23078;-76
2022/06/14 06:36:26;;;;;;;4.97;1.73;;;23.60;66.20;22.60;100370;;;;573008;246;24059;-76
2022/06/14 06:39:16;;;;;;;4.00;1.47;;;23.30;68.10;22.60;100376;;;;573092;246;24086;-77
2022/06/14 06:41:49;;;;;;;3.97;1.60;;;23.10;68.90;22.50;100383;;;;573141;246;24050;-76
2022/06/14 06:44:38;;;;;;;5.90;1.97;;;23.10;69.20;22.50;100379;;;;574668;246;24097;-75
2022/06/14 06:47:13;;;;;;;2.70;1.73;;;23.10;68.80;23.00;100389;;;;574178;246;24065;-75
2022/06/14 06:50:15;;;;;;;3.40;1.60;;;24.40;66.60;24.30;100388;;;;569805;246;24133;-77
2022/06/14 06:52:57;;;;;;;6.67;1.60;;;24.40;66.50;26.40;100386;;;;569066;246;24053;-77
2022/06/14 06:55:35;;;;;;;5.23;1.80;;;28.90;58.60;29.10;100391;;;;581917;246;23101;-77
2022/06/14 06:58:03;;;;;;;3.47;1.30;;;30.80;54.60;30.60;100391;;;;569088;246;23077;-76
2022/06/14 07:00:35;;;;;;;11.13;2.10;;;30.70;54.10;32.00;100389;;;;573066;246;24080;-77
2022/06/14 07:02:59;;;;;;;6.50;2.10;;;32.10;52.20;33.00;100391;;;;572866;246;24099;-80
2022/06/14 07:05:27;;;;;;;5.30;1.80;;;33.30;50.10;34.10;100390;;;;572695;246;23086;-82
2022/06/14 07:08:04;;;;;;;5.65;1.75;;;34.40;47.90;35.10;100400;;;;581779;246;24080;-79
2022/06/14 07:10:43;;;;;;;4.32;1.70;;;35.60;45.50;35.60;100386;;;;581251;246;23119;-82
2022/06/14 07:13:48;;;;;;;4.15;1.62;;;36.10;44.80;36.50;100397;;;;572931;246;23115;-78
2022/06/14 07:16:25;;;;;;;4.72;1.98;;;36.90;43.50;36.90;100402;;;;573029;246;23071;-79
2022/06/14 07:19:23;;;;;;;5.37;2.10;;;37.50;41.00;37.00;100396;;;;568540;246;24167;-75
2022/06/14 07:21:52;;;;;;;4.80;1.98;;;37.80;40.10;36.90;100399;;;;573075;246;23098;-79
2022/06/14 07:24:29;;;;;;;3.58;2.05;;;37.50;39.90;37.40;100408;;;;571943;246;24136;-81
2022/06/14 07:27:15;;;;;;;7.15;1.90;;;38.80;39.10;38.30;100411;;;;576460;246;35176;-77
2022/06/14 07:29:48;;;;;;;3.08;1.37;;;38.70;39.00;37.30;100402;;;;572514;246;23109;-76
2022/06/14 07:32:16;;;;;;;5.72;2.92;;;38.20;38.70;37.20;100404;;;;572617;245;24103;-79
2022/06/14 07:34:44;;;;;;;3.25;1.40;;;37.70;39.10;37.40;100417;;;;569096;246;23160;-81
2022/06/14 07:37:33;;;;;;;2.05;1.50;;;37.90;38.90;35.60;100416;;;;573042;246;23124;-80
2022/06/14 07:40:04;;;;;;;4.85;1.70;;;35.10;41.10;33.80;100397;;;;571292;245;23177;-79
2022/06/14 07:42:38;;;;;;;5.07;2.20;;;35.10;41.10;31.40;100421;;;;572677;245;23073;-77
2022/06/14 07:45:18;;;;;;;2.75;1.20;;;33.10;42.50;29.00;100419;;;;571801;246;23112;-79
2022/06/14 07:47:54;;;;;;;3.55;1.15;;;30.90;44.80;26.50;100416;;;;569107;246;24077;-80
2022/06/14 07:50:37;;;;;;;3.93;1.10;;;28.40;48.10;24.90;100418;;;;572715;245;23082;-81
2022/06/14 07:53:14;;;;;;;4.53;1.55;;;25.10;53.90;24.00;100414;;;;556950;246;35092;-80
2022/06/14 07:55:48;;;;;;;3.03;1.30;;;25.00;53.90;23.40;100409;;;;573988;246;23123;-79
2022/06/14 07:58:30;;;;;;;5.00;1.40;;;24.20;57.00;23.40;100413;;;;582655;246;24083;-76
2022/06/14 08:01:07;;;;;;;2.63;0.90;;;23.90;57.40;23.60;100413;;;;573120;246;24058;-76
2022/06/14 08:03:44;;;;;;;4.03;1.23;;;24.00;57.20;23.30;100409;;;;573986;246;24035;-76
2022/06/14 08:06:30;;;;;;;2.43;0.80;;;23.70;56.20;22.80;100413;;;;569392;246;24087;-81
2022/06/14 08:09:06;;;;;;;4.70;1.80;;;23.40;57.40;22.30;100419;;;;570119;246;24104;-81
2022/06/14 08:11:38;;;;;;;4.30;1.50;;;22.60;61.40;22.10;100423;;;;568702;246;24138;-80
2022/06/14 08:14:09;;;;;;;4.03;1.73;;;22.40;63.40;21.80;100423;;;;567806;245;35214;-76
2022/06/14 08:16:37;;;;;;;4.47;1.57;;;22.30;63.40;21.60;100421;;;;581599;246;24117;-80
2022/06/14 08:19:08;;;;;;;7.93;1.50;;;22.10;64.20;22.70;100420;;;;570398;246;24053;-82
2022/06/14 08:21:48;;;;;;;2.87;1.13;;;22.80;64.20;26.20;100414;;;;572463;246;24223;-80
2022/06/14 08:24:19;;;;;;;3.87;1.37;;;25.70;59.40;27.60;100435;;;;572324;246;23162;-83
2022/06/14 08:26:56;;;;;;;2.80;1.60;;;27.70;54.60;27.00;100418;;;;571312;246;24093;-80
2022/06/14 08:29:35;;;;;;;4.27;1.23;;;27.70;50.50;26.10;100429;;;;574941;246;23081;-83
2022/06/14 08:32:40;;;;;;;2.93;1.23;;;27.00;51.40;26.30;100424;;;;573843;245;23110;-80
2022/06/14 08:35:20;;;;;;;3.60;1.10;;;26.90;52.10;26.20;100430;;;;569826;246;23155;-78
2022/06/14 08:38:00;;;;;;;2.50;1.20;;;26.90;52.70;27.40;100430;;;;569746;245;23061;-78
2022/06/14 08:41:07;;;;;;;2.90;1.27;;;27.70;53.30;28.90;100430;;;;573039;246;24094;-77
2022/06/14 08:43:50;;;;;;;3.35;1.42;;;29.10;51.00;28.60;100442;;;;572952;246;23089;-75
2022/06/14 08:46:33;;;;;;;1.97;1.23;;;29.40;49.10;27.90;100440;;;;572867;246;23104;-78
2022/06/14 08:49:28;;;;;;;3.57;1.23;;;28.80;49.90;28.40;100427;;;;566767;246;23081;-75
2022/06/14 08:52:42;;;;;;;2.70;1.10;;;30.50;48.90;30.30;100432;;;;573199;246;23079;-79
2022/06/14 08:55:41;;;;;;;2.70;1.30;;;30.50;48.90;33.20;100434;;;;573145;246;23096;-75
2022/06/14 08:58:21;;;;;;;4.87;1.45;;;33.40;46.60;32.50;100440;;;;568791;246;24125;-77
2022/06/14 09:01:00;;;;;;;4.05;1.17;;;33.60;44.40;29.90;100438;;;;573104;246;24144;-82
2022/06/14 09:04:01;;;;;;;2.20;1.10;;;31.80;44.90;27.70;100438;;;;572331;246;24119;-76
2022/06/14 09:06:54;;;;;;;2.70;1.10;;;29.60;46.80;28.80;100433;;;;573669;246;23115;-77
2022/06/14 09:09:59;;;;;;;4.93;1.25;;;30.50;47.60;29.90;100434;;;;573833;246;24075;-74
2022/06/14 09:12:52;;;;;;;2.12;1.40;;;30.40;46.90;28.80;100425;;;;573966;246;23073;-77
2022/06/14 09:15:59;;;;;;;2.47;1.25;;;29.80;46.90;28.40;100432;;;;573841;246;23082;-74
2022/06/14 09:18:46;;;;;;;3.62;0.93;;;30.30;47.50;30.00;100436;;;;573747;246;23126;-75
2022/06/14 09:21:16;;;;;;;3.37;1.10;;;30.30;47.40;32.10;100427;;;;573629;246;23116;-76
2022/06/14 09:23:45;;;;;;;3.37;1.48;;;32.30;45.20;33.10;100445;;;;580972;246;23194;-77
2022/06/14 09:26:30;;;;;;;2.95;1.33;;;33.70;42.70;31.50;100447;;;;572814;245;24094;-75
2022/06/14 09:29:29;;;;;;;3.72;1.52;;;32.90;43.50;29.30;100443;;;;572794;246;23074;-78
2022/06/14 09:32:17;;;;;;;5.43;1.58;;;30.90;45.50;27.50;100452;;;;572749;246;23109;-74
2022/06/14 09:35:22;;;;;;;1.98;1.20;;;28.90;48.70;27.40;100449;;;;573066;246;23106;-80
2022/06/14 09:38:15;;;;;;;6.47;1.10;;;28.10;50.40;28.60;100445;;;;573403;246;23088;-81
2022/06/14 09:40:45;;;;;;;2.03;1.02;;;29.10;49.00;30.20;100447;;;;573487;246;23100;-75
2022/06/14 09:43:37;;;;;;;2.45;1.45;;;30.50;47.50;31.20;100452;;;;561256;246;23074;-76
2022/06/14 09:46:34;;;;;;;1.67;1.35;;;34.10;42.70;33.90;100465;;;;568928;246;24155;-75
2022/06/14 09:49:29;;;;;;;1.52;1.10;;;34.00;42.50;35.70;100466;;;;573109;246;23111;-75
2022/06/14 09:52:39;;;;;;;3.15;1.00;;;36.30;39.30;35.90;100462;;;;572380;246;23140;-78
2022/06/14 09:55:25;;;;;;;2.67;1.02;;;37.10;37.20;34.50;100465;;;;573246;246;23083;-77
2022/06/14 09:58:11;;;;;;;1.42;0.85;;;36.10;37.70;33.40;100460;;;;573130;246;23092;-81
2022/06/14 10:00:44;;;;;;;3.05;1.08;;;35.00;38.80;33.60;100459;;;;572233;246;24077;-82
2022/06/14 10:03:28;;;;;;;1.25;0.60;;;34.70;40.20;34.40;100461;;;;572656;245;23092;-78
2022/06/14 10:06:20;;;;;;;4.20;1.00;;;35.30;40.10;36.30;100453;;;;572792;246;23070;-76
2022/06/14 10:09:06;;;;;;;2.47;0.90;;;37.00;38.70;38.00;100461;;;;568483;246;23116;-75
2022/06/14 10:11:42;;;;;;;5.45;1.08;;;38.90;37.00;38.70;100453;;;;572803;246;23067;-83
2022/06/14 10:14:29;;;;;;;3.22;1.20;;;40.90;35.20;39.80;100453;;;;572907;246;24111;-80
2022/06/14 10:17:36;;;;;;;5.37;1.27;;;40.80;35.00;39.80;100471;;;;572774;245;23083;-83
2022/06/14 10:20:22;;;;;;;0.88;0.73;;;41.20;34.60;38.10;100458;;;;571168;246;23065;-78
2022/06/14 10:23:11;;;;;;;3.03;1.08;;;39.90;34.10;37.10;100465;;;;573611;246;23079;-78
2022/06/14 10:28:11;;;;;;;5.00;0.95;;;38.80;34.80;35.20;100462;;;;573924;246;24076;-80
2022/06/14 10:28:23;;;;;;;2.58;0.95;;;34.90;37.30;33.00;100459;;;;580406;246;24095;-80
2022/06/14 10:30:51;;;;;;;5.03;1.65;;;34.80;37.30;32.70;100469;;;;571389;246;23123;-81
2022/06/14 10:33:50;;;;;;;3.78;1.27;;;33.80;39.90;32.30;100462;;;;568194;246;35079;-77
2022/06/14 10:36:42;;;;;;;1.60;1.00;;;33.40;40.30;30.50;100455;;;;573385;246;23078;-80
2022/06/14 10:39:31;;;;;;;1.73;1.20;;;32.00;41.20;28.80;100459;;;;559053;246;23079;-78
2022/06/14 10:42:14;;;;;;;1.20;0.62;;;30.20;43.70;28.30;100450;;;;572046;245;23078;-76
2022/06/14 10:45:00;;;;;;;2.00;1.00;;;29.10;45.50;28.30;100447;;;;571873;246;23131;-78
2022/06/14 10:48:14;;;;;;;0.87;0.57;;;28.00;46.80;27.30;100443;;;;563545;246;23070;-75
2022/06/14 10:51:04;;;;;;;7.37;1.03;;;27.00;48.90;26.60;100454;;;;572337;245;23140;-78
2022/06/14 10:53:58;;;;;;;2.63;0.90;;;26.30;49.00;25.70;100446;;;;581980;244;24057;-76
2022/06/14 10:56:52;;;;;;;5.60;0.80;;;26.20;48.80;24.80;100452;;;;572961;245;24113;-75
2022/06/14 10:59:20;;;;;;;1.83;0.70;;;25.40;50.80;23.90;100449;;;;572392;246;23164;-77
2022/06/14 11:02:00;;;;;;;2.53;1.33;;;24.50;52.10;23.50;100444;;;;572075;246;24048;-76
2022/06/14 11:04:49;;;;;;;2.67;0.90;;;23.90;54.10;23.00;100444;;;;562787;246;24112;-80
2022/06/14 11:07:36;;;;;;;1.70;0.60;;;23.40;55.40;22.90;100464;;;;573160;246;24076;-78
2022/06/14 11:10:47;;;;;;;2.10;0.93;;;23.20;56.00;22.50;100456;;;;573231;246;24096;-80
2022/06/14 11:14:07;;;;;;;1.47;0.97;;;22.90;56.40;22.30;100462;;;;573049;245;24072;-77
2022/06/14 11:17:11;;;;;;;2.70;1.00;;;22.80;57.50;22.10;100469;;;;573154;246;23137;-82
2022/06/14 11:19:54;;;;;;;7.40;1.03;;;22.50;58.40;21.80;100469;;;;573231;246;24102;-78
2022/06/14 11:22:28;;;;;;;2.97;0.63;;;22.30;58.40;21.50;100455;;;;570780;245;24107;-82
2022/06/14 11:25:39;;;;;;;3.10;0.90;;;22.00;59.40;21.50;100461;;;;572624;246;24151;-78
2022/06/14 11:28:35;;;;;;;2.80;0.80;;;21.90;58.80;21.50;100457;;;;573171;246;24095;-82
2022/06/14 11:31:24;;;;;;;1.37;0.80;;;21.80;58.80;21.60;100456;;;;574203;246;24062;-82
2022/06/14 11:34:23;;;;;;;4.67;1.07;;;22.30;58.60;21.90;100450;;;;569234;246;24133;-75
2022/06/14 11:37:26;;;;;;;3.50;1.30;;;22.30;58.60;22.00;100458;;;;569631;246;23074;-79
2022/06/14 11:40:13;;;;;;;3.93;0.87;;;22.40;58.50;21.90;100456;;;;582366;246;24052;-80
2022/06/14 11:43:00;;;;;;;5.70;1.00;;;22.30;60.80;21.90;100455;;;;573505;246;24046;-80
2022/06/14 11:45:50;;;;;;;1.70;0.87;;;22.40;60.40;21.90;100471;;;;573690;246;24044;-79
2022/06/14 11:48:45;;;;;;;2.27;0.90;;;22.40;60.40;21.60;100476;;;;581879;246;24076;-75
2022/06/14 11:51:25;;;;;;;0.93;0.83;;;22.30;60.10;21.40;100473;;;;573767;246;24059;-79
2022/06/14 11:54:05;;;;;;;2.83;1.30;;;22.00;61.10;21.20;100485;;;;573469;246;24075;-83
2022/06/14 11:56:54;;;;;;;1.50;0.70;;;21.80;61.70;21.00;100477;;;;573880;246;23091;-82
2022/06/14 11:59:50;;;;;;;3.80;1.27;;;21.60;61.70;20.70;100463;;;;573897;246;24092;-83
2022/06/14 12:02:38;;;;;;;3.40;0.73;;;21.30;63.70;20.80;100478;;;;572934;246;23082;-76
2022/06/14 12:05:35;;;;;;;2.37;1.20;;;21.30;63.80;20.80;100473;;;;573416;246;23113;-75
2022/06/14 12:08:22;;;;;;;4.23;0.87;;;21.40;64.00;20.80;100480;;;;573333;246;23100;-78
2022/06/14 12:11:26;;;;;;;5.13;1.30;;;21.40;64.00;20.90;100476;;;;568965;246;24057;-74
2022/06/14 12:14:37;;;;;;;2.27;1.17;;;21.40;64.20;21.10;100478;;;;573464;246;24091;-74
2022/06/14 12:17:28;;;;;;;2.23;1.17;;;21.60;63.80;20.80;100470;;;;582307;246;24051;-76